Saturday, February 24, 2018, 8:23 AM GMT
Back to Local

CWSS, St. Stephen, N. B.

Location: , , Canada Lat: 45.217
Local Time: 8:23 AM GMT ( 8:23 GMT) Lon: -67.25
Time Zone: GMT Elev: 85 ft

Show me the last for .
Show Coded

Time T Td Feel RH Dir Speed Gust Alt SLP Vis Weather Sky Remarks
2018-02-24 08:00 35 33 30 93 230° 6 - - 29.88 0 None
2018-02-24 07:00 35 33 29 94 220° 6 - - 29.91 0 None
2018-02-24 06:00 33 32 29 93 190° 5 - - 29.96 0 1-hr Precip Total: 0.02"
2018-02-24 05:00 33 32 27 95 190° 6 - - 30.01 0 None
2018-02-24 04:00 31 30 26 94 180° 6 - - 30.06 0 Pressure falling rapidly
2018-02-24 03:00 29 27 24 92 160° 5 - - 30.12 0 Pressure falling rapidly
1-hr Precip Total: 0.02"
2018-02-24 02:00 27 24 23 88 120° 3 - - 30.19 0 Pressure falling rapidly
1-hr Precip Total: 0.01"
2018-02-24 01:00 27 22 22 80 140° 5 - - 30.26 0 Pressure falling rapidly
1-hr Precip Total: 0.02"
2018-02-24 00:00 28 18 24 65 160° 3 - - 30.32 0 Pressure falling rapidly
2018-02-23 23:00 28 16 21 59 190° 7 - - 30.39 0 None
2018-02-23 22:00 29 15 21 56 170° 7 - - 30.43 0 None
2018-02-23 21:00 29 13 22 50 150° 7 - - 30.48 0 None
2018-02-23 20:00 30 13 24 48 130° 6 - - 30.50 0 None
2018-02-23 19:00 30 7 24 37 190° 6 - - 30.56 0 None
2018-02-23 18:00 31 9 27 39 160° 3 - - 30.59 0 Pressure falling rapidly
2018-02-23 17:00 29 8 23 40 180° 6 - - 30.65 0 None
2018-02-23 16:00 28 7 23 40 100° 5 - - 30.68 0 None
2018-02-23 15:00 25 7 19 45 60° 5 - - 30.72 0 None
2018-02-23 14:00 24 9 - 52 70° 1 - - 30.74 0 None
2018-02-23 13:00 20 8 - 57 - Calm - - 30.76 0 None
2018-02-23 12:00 15 9 - 77 320° 1 - - 30.76 0 None
2018-02-23 11:00 12 8 - 82 - Calm - - 30.75 0 None
2018-02-23 10:00 13 9 - 81 320° 2 - - 30.74 0 None
2018-02-23 09:00 14 10 - 82 330° 1 - - 30.73 0 None

Support USWX by starting your Amazon purchase here.